Historique des mesures à Cassis (13260), France
Quotidien Résumé Fevrier 8, 2018 Unités:  US    Métrique   Métrique/US
« Précédent (Jour)
Suivant (Jour) »
Quotidien Hebdomadaire Mensuel Annuel Période au choix
  Maximum: Minimum: Moyenne:
Température: TemperatureC °F 2.4 °F 4.3 °F
Point de rosée: DewpointC °F -3.7 °F -1.7 °F
Humidité: Humidity % 59 % 61 %
Vitesse du vent: WindSpeedKMH mph 0.0 mph 9.3 mph
Rafales: WindSpeedGustKMH mph - -
Vent:- - West
Pression: PressurehPa in 1010.4 in -
Précipitations: 0.0 in    
Historical Graphs
 
 
Mesures pour : Fevrier 8, 2018
Heure Temperature Point de rosée Pression Vent Vitesse du vent Rafales Humidité Pluie (par heure) Conditions
TemperatureC °F DewpointC °F PressurehPa in Calm     Humidity % HourlyPrecipMM in SoftwareType W/m2
00:12 2.9 °F -3.7 °F 1010.4 in NNW 16.3 mph 19.1 mph 62 % 0.0 in open2300-1.11 W/m2
01:12 2.9 °F -3.4 °F 1010.4 in NNW 11.1 mph 17.2 mph 63 % 0.0 in open2300-1.11 W/m2
02:12 2.9 °F -3.7 °F 1010.7 in West 13.4 mph 22.7 mph 62 % 0.0 in open2300-1.11 W/m2
03:12 2.9 °F -3.4 °F 1010.7 in WNW 13.0 mph 34.1 mph 63 % 0.0 in open2300-1.11 W/m2
04:12 2.7 °F -3.2 °F 1010.4 in WNW 21.9 mph 21.9 mph 65 % 0.0 in open2300-1.11 W/m2
05:12 2.6 °F -3.1 °F 1010.7 in NW 12.2 mph 24.8 mph 66 % 0.0 in open2300-1.11 W/m2
06:12 2.6 °F -2.9 °F 1011.4 in WNW 4.0 mph 7.2 mph 67 % 0.0 in open2300-1.11 W/m2
07:12 2.4 °F -2.9 °F 1011.1 in WNW 13.4 mph 13.4 mph 68 % 0.0 in open2300-1.11 W/m2
08:12 2.5 °F -2.6 °F 1012.1 in WNW 7.2 mph 7.6 mph 69 % 0.0 in open2300-1.11 W/m2
09:12 2.9 °F -2.2 °F 1012.4 in West 6.1 mph 6.8 mph 69 % 0.0 in open2300-1.11 W/m2
10:12 3.5 °F -1.7 °F 1012.4 in NNW 21.6 mph 21.6 mph 69 % 0.0 in open2300-1.11 W/m2
11:12 4.4 °F -1.2 °F 1013.1 in WNW 14.0 mph 14.0 mph 67 % 0.0 in open2300-1.11 W/m2
12:12 5.4 °F -0.9 °F 1013.1 in NW 6.1 mph 9.3 mph 64 % 0.0 in open2300-1.11 W/m2
13:12 6.3 °F -0.3 °F 1012.4 in NW 4.0 mph 18.0 mph 63 % 0.0 in open2300-1.11 W/m2
14:12 7.0 °F -0.2 °F 1012.1 in WNW 24.1 mph 24.1 mph 60 % 0.0 in open2300-1.11 W/m2
15:12 7.8 °F 0.3 °F 1011.7 in NNW 14.3 mph 26.2 mph 59 % 0.0 in open2300-1.11 W/m2
16:12 7.8 °F 0.3 °F 1012.4 in North 3.5 mph 19.1 mph 59 % 0.0 in open2300-1.11 W/m2
17:12 7.2 °F 0.1 °F 1012.8 in North 7.6 mph 7.9 mph 60 % 0.0 in open2300-1.11 W/m2
18:12 6.1 °F -0.7 °F 1013.1 in NNW 5.0 mph 9.0 mph 62 % 0.0 in open2300-1.11 W/m2
19:12 5.6 °F -1.1 °F 1014.1 in NNW 7.2 mph 12.2 mph 62 % 0.0 in open2300-1.11 W/m2
20:12 5.8 °F -1.6 °F 1014.1 in West 3.2 mph 6.1 mph 59 % 0.0 in open2300-1.11 W/m2
21:12 5.1 °F -1.2 °F 1014.4 in SE 2.1 mph 2.1 mph 64 % 0.0 in open2300-1.11 W/m2
22:12 4.8 °F -1.2 °F 1014.4 in Calm     65 % 0.0 in open2300-1.11 W/m2
23:12 3.9 °F -1.7 °F 1014.1 in Calm     67 % 0.0 in open2300-1.11 W/m2
Observations météo à CASSIS
WU-History script by Weather Underground - 1 mb